Time;durP1;ratioP1;P1;durP2;ratioP2;P2;SDS_P1;SDS_P2;PMS_P1;PMS_P2;Temp;Humidity;BMP_temperature;BMP_pressure;BME280_temperature;BME280_humidity;BME280_pressure;Samples;Min_cycle;Max_cycle;Signal;HPM_P1;HPM_P2
2022/07/08 00:01:11;;;;;;;7.70;1.00;;;;;;;16.86;100.00;102964.41;4765811;30;20055;-62
2022/07/08 00:03:37;;;;;;;9.15;1.58;;;;;;;16.81;100.00;102971.88;4763231;29;20757;-62
2022/07/08 00:06:04;;;;;;;7.53;1.70;;;;;;;16.78;100.00;102974.81;4756992;29;20509;-63
2022/07/08 00:08:30;;;;;;;9.65;1.30;;;;;;;16.79;100.00;102971.19;4759282;30;20593;-62
2022/07/08 00:10:57;;;;;;;8.07;1.50;;;;;;;16.79;100.00;102977.31;4746385;30;20051;-62
2022/07/08 00:13:24;;;;;;;7.10;1.13;;;;;;;16.76;100.00;102980.25;4759714;30;20056;-62
2022/07/08 00:15:50;;;;;;;11.05;2.13;;;;;;;16.71;100.00;102977.16;4748846;30;20056;-62
2022/07/08 00:18:17;;;;;;;10.40;1.50;;;;;;;16.67;100.00;102977.56;4756521;30;20527;-63
2022/07/08 00:20:43;;;;;;;8.27;1.60;;;;;;;16.71;100.00;102976.31;4754445;30;20501;-62
2022/07/08 00:23:10;;;;;;;10.15;1.70;;;;;;;16.68;100.00;102977.44;4747804;29;20070;-62
2022/07/08 00:25:36;;;;;;;6.72;1.70;;;;;;;16.70;100.00;102967.53;4764274;29;20051;-63
2022/07/08 00:28:03;;;;;;;7.95;1.50;;;;;;;16.65;100.00;102969.75;4746944;30;20419;-63
2022/07/08 00:30:29;;;;;;;5.75;1.20;;;;;;;16.62;100.00;102980.59;4758215;30;20063;-65
2022/07/08 00:32:56;;;;;;;7.93;1.67;;;;;;;16.56;100.00;102982.00;4748028;30;20540;-63
2022/07/08 00:35:22;;;;;;;5.82;1.08;;;;;;;16.55;100.00;102982.94;4753821;30;20855;-63
2022/07/08 00:37:48;;;;;;;8.35;1.50;;;;;;;16.52;100.00;102977.06;4754789;30;20059;-63
2022/07/08 00:40:15;;;;;;;8.25;1.52;;;;;;;16.49;100.00;102977.34;4751535;30;20060;-63
2022/07/08 00:42:41;;;;;;;9.50;1.85;;;;;;;16.43;100.00;102983.19;4756770;30;20058;-61
2022/07/08 00:45:08;;;;;;;7.45;1.17;;;;;;;16.38;100.00;102978.28;4743103;30;20067;-63
2022/07/08 00:47:35;;;;;;;5.32;1.40;;;;;;;16.39;100.00;102980.78;4758767;30;20058;-63
2022/07/08 00:50:01;;;;;;;4.78;1.52;;;;;;;16.41;100.00;102980.66;4751640;30;20264;-63
2022/07/08 00:52:28;;;;;;;10.05;1.75;;;;;;;16.35;100.00;102982.03;4747481;30;20356;-62
2022/07/08 00:54:55;;;;;;;6.18;1.75;;;;;;;16.38;100.00;102984.41;4760270;29;20063;-63
2022/07/08 00:57:21;;;;;;;5.60;1.52;;;;;;;16.37;100.00;102992.50;4756081;30;20147;-64
2022/07/08 00:59:48;;;;;;;7.68;1.20;;;;;;;16.30;100.00;102989.53;4755635;30;20058;-63
2022/07/08 01:02:15;;;;;;;8.57;1.50;;;;;;;16.35;100.00;102987.31;4754717;29;20095;-63
2022/07/08 01:04:41;;;;;;;11.30;1.70;;;;;;;16.37;100.00;102984.56;4763505;30;20060;-63
2022/07/08 01:07:08;;;;;;;7.47;1.55;;;;;;;16.37;100.00;102995.16;4745030;30;20107;-62
2022/07/08 01:09:34;;;;;;;6.32;1.40;;;;;;;16.34;100.00;102995.41;4762864;30;20062;-64
2022/07/08 01:12:01;;;;;;;5.47;1.40;;;;;;;16.38;100.00;102996.81;4760586;29;20059;-63
2022/07/08 01:14:28;;;;;;;9.25;1.70;;;;;;;16.38;100.00;102992.34;4755351;29;20059;-61
2022/07/08 01:16:55;;;;;;;7.18;1.65;;;;;;;16.40;100.00;102994.88;4757551;30;20056;-62
2022/07/08 01:19:21;;;;;;;10.30;1.50;;;;;;;16.36;100.00;103004.06;4743849;30;20054;-62
2022/07/08 01:21:47;;;;;;;8.45;1.73;;;;;;;16.36;100.00;102993.47;4755422;29;20512;-63
2022/07/08 01:24:14;;;;;;;10.02;1.70;;;;;;;16.35;100.00;102989.16;4764335;30;20066;-62
2022/07/08 01:26:40;;;;;;;7.20;1.58;;;;;;;16.28;100.00;102993.28;4742162;30;20066;-62
2022/07/08 01:29:07;;;;;;;8.75;2.20;;;;;;;16.31;100.00;102995.69;4753836;30;20066;-62
2022/07/08 01:31:33;;;;;;;13.02;2.03;;;;;;;16.29;100.00;102987.84;4750258;30;20060;-62
2022/07/08 01:34:00;;;;;;;11.10;1.75;;;;;;;16.31;100.00;102993.88;4749753;30;20060;-62
2022/07/08 01:36:26;;;;;;;8.60;1.90;;;;;;;16.25;100.00;102985.59;4748815;30;20674;-62
2022/07/08 01:38:53;;;;;;;4.30;1.30;;;;;;;16.22;100.00;102989.34;4757439;30;20058;-62
2022/07/08 01:41:19;;;;;;;8.02;1.40;;;;;;;16.21;100.00;103000.91;4758976;30;20051;-62
2022/07/08 01:43:46;;;;;;;13.20;1.67;;;;;;;16.17;100.00;102992.38;4742824;30;20421;-62
2022/07/08 01:46:12;;;;;;;9.93;1.40;;;;;;;16.18;100.00;102990.56;4747287;30;20052;-62
2022/07/08 01:48:39;;;;;;;5.75;1.83;;;;;;;16.12;100.00;102981.34;4744964;30;20062;-62
2022/07/08 01:51:06;;;;;;;6.05;1.30;;;;;;;16.06;100.00;102981.03;4758017;30;20391;-63
2022/07/08 01:53:32;;;;;;;8.20;1.55;;;;;;;16.04;100.00;102988.28;4753480;30;20056;-61
2022/07/08 01:55:59;;;;;;;6.60;1.20;;;;;;;15.96;100.00;102994.22;4756739;30;20618;-62
2022/07/08 01:58:25;;;;;;;7.88;1.40;;;;;;;15.96;100.00;102991.56;4751368;30;20055;-61
2022/07/08 02:00:52;;;;;;;9.00;1.35;;;;;;;15.92;100.00;102998.91;4738360;30;20113;-62
2022/07/08 02:03:19;;;;;;;8.55;1.25;;;;;;;15.85;100.00;103002.19;4752848;30;20056;-61
2022/07/08 02:05:46;;;;;;;11.25;1.50;;;;;;;15.86;100.00;103006.50;4758753;29;20070;-61
2022/07/08 02:08:12;;;;;;;8.65;1.55;;;;;;;15.90;100.00;102992.91;4758909;29;20056;-62
2022/07/08 02:13:24;;;;;;;4.13;1.10;;;;;;;15.96;100.00;102988.91;4748818;30;20179;-63
2022/07/08 02:15:51;;;;;;;5.20;1.50;;;;;;;15.98;100.00;102984.31;4757963;30;20056;-62
2022/07/08 02:18:17;;;;;;;4.90;1.35;;;;;;;15.92;100.00;102987.50;4742202;30;20509;-61
2022/07/08 02:20:44;;;;;;;7.70;1.50;;;;;;;15.85;100.00;102981.84;4750240;30;20068;-63
2022/07/08 02:23:10;;;;;;;12.80;2.17;;;;;;;15.81;100.00;102977.78;4751930;30;20442;-62
2022/07/08 02:25:37;;;;;;;6.22;1.40;;;;;;;15.79;100.00;102983.22;4758964;30;20066;-62
2022/07/08 02:28:04;;;;;;;7.57;1.33;;;;;;;15.80;100.00;102984.91;4754580;30;20066;-62
2022/07/08 02:30:30;;;;;;;9.38;1.42;;;;;;;15.76;100.00;102990.59;4756951;30;20510;-62
2022/07/08 02:32:56;;;;;;;9.80;1.63;;;;;;;15.80;100.00;102992.84;4761909;29;20079;-61
2022/07/08 02:35:23;;;;;;;7.22;1.90;;;;;;;15.77;100.00;102995.72;4752588;30;20506;-63
2022/07/08 02:37:49;;;;;;;5.97;1.40;;;;;;;15.77;100.00;102990.44;4756912;30;20606;-61
2022/07/08 02:40:16;;;;;;;6.78;1.42;;;;;;;15.80;100.00;102989.34;4748960;30;20074;-62
2022/07/08 02:42:42;;;;;;;7.15;1.42;;;;;;;15.83;100.00;102991.72;4760442;30;20531;-63
2022/07/08 02:45:09;;;;;;;7.97;1.40;;;;;;;15.84;100.00;102979.34;4776622;29;20480;-62
2022/07/08 02:47:35;;;;;;;7.35;1.48;;;;;;;15.80;100.00;102982.25;4758334;29;20064;-62
2022/07/08 02:50:02;;;;;;;6.72;1.50;;;;;;;15.78;100.00;102988.66;4757524;30;20060;-63
2022/07/08 02:52:28;;;;;;;13.27;1.48;;;;;;;15.77;100.00;102989.59;4758386;30;20059;-63
2022/07/08 02:54:55;;;;;;;6.80;1.58;;;;;;;15.74;100.00;102990.72;4754349;29;20064;-63
2022/07/08 02:57:21;;;;;;;6.15;1.50;;;;;;;15.70;100.00;102986.59;4738391;30;20078;-63
2022/07/08 02:59:47;;;;;;;6.38;1.50;;;;;;;15.67;100.00;102980.72;4752741;30;20069;-64
2022/07/08 03:02:15;;;;;;;5.32;1.50;;;;;;;15.63;100.00;102988.91;4761019;30;20819;-63
2022/07/08 03:04:41;;;;;;;7.03;1.30;;;;;;;15.58;100.00;102991.09;4755683;29;20071;-63
2022/07/08 03:07:08;;;;;;;3.90;1.30;;;;;;;15.52;100.00;102988.09;4764161;30;20303;-63
2022/07/08 03:09:35;;;;;;;5.35;1.30;;;;;;;15.49;100.00;102988.38;4761272;29;20468;-64
2022/07/08 03:12:01;;;;;;;6.55;1.42;;;;;;;15.42;100.00;102991.50;4747735;30;20051;-64
2022/07/08 03:14:28;;;;;;;9.40;1.60;;;;;;;15.38;100.00;102987.44;4751520;30;20058;-64
2022/07/08 03:16:54;;;;;;;9.35;1.83;;;;;;;15.41;100.00;102996.94;4763637;29;20530;-62
2022/07/08 03:19:20;;;;;;;7.75;1.52;;;;;;;15.40;100.00;102990.78;4772357;29;20055;-64
2022/07/08 03:21:47;;;;;;;10.43;1.70;;;;;;;15.38;100.00;102987.44;4758208;29;20051;-62
2022/07/08 03:24:13;;;;;;;8.68;1.70;;;;;;;15.35;100.00;102989.50;4755367;30;20349;-64
2022/07/08 03:26:40;;;;;;;6.15;2.10;;;;;;;15.28;100.00;102994.44;4748822;30;20064;-63
2022/07/08 03:29:06;;;;;;;7.95;2.33;;;;;;;15.26;100.00;102987.59;4753491;30;20060;-63
2022/07/08 03:31:33;;;;;;;4.72;1.33;;;;;;;15.25;100.00;102988.56;4753714;30;20059;-63
2022/07/08 03:33:59;;;;;;;8.82;1.65;;;;;;;15.16;100.00;102993.63;4756925;30;20063;-63
2022/07/08 03:36:26;;;;;;;5.93;1.65;;;;;;;15.16;100.00;103000.72;4759102;29;20055;-63
2022/07/08 03:38:52;;;;;;;8.15;2.00;;;;;;;15.09;100.00;102992.44;4748292;29;20055;-63
2022/07/08 03:41:23;;;;;;;10.60;2.17;;;;;;;15.07;100.00;103004.94;4765863;30;20067;-63
2022/07/08 03:43:50;;;;;;;12.27;1.70;;;;;;;15.09;100.00;103004.81;4751482;30;20664;-63
2022/07/08 03:46:17;;;;;;;6.57;1.63;;;;;;;15.06;100.00;103002.44;4767365;30;20052;-63
2022/07/08 03:48:43;;;;;;;6.80;1.60;;;;;;;15.01;100.00;103003.66;4763286;30;20095;-63
2022/07/08 03:51:10;;;;;;;7.40;1.90;;;;;;;14.94;100.00;103010.38;4744051;30;20079;-64
2022/07/08 03:53:36;;;;;;;9.13;2.30;;;;;;;14.82;100.00;103014.00;4747714;30;20308;-63
2022/07/08 03:56:05;;;;;;;5.47;1.55;;;;;;;14.78;100.00;103012.56;4746441;30;20070;-64
2022/07/08 03:58:34;;;;;;;6.50;1.60;;;;;;;14.78;100.00;103013.38;4760023;30;20067;-63
2022/07/08 04:01:00;;;;;;;9.07;2.15;;;;;;;14.79;100.00;103017.69;4758503;30;20070;-62
2022/07/08 04:03:27;;;;;;;5.72;1.75;;;;;;;14.79;100.00;103022.97;4772373;29;20476;-62
2022/07/08 04:05:53;;;;;;;7.00;1.67;;;;;;;14.78;100.00;103028.41;4752479;29;20062;-62
2022/07/08 04:08:20;;;;;;;9.25;1.65;;;;;;;14.78;100.00;103031.88;4758071;30;20055;-63
2022/07/08 04:10:46;;;;;;;7.90;1.60;;;;;;;14.75;100.00;103026.00;4762985;30;20055;-63
2022/07/08 04:13:13;;;;;;;7.72;1.83;;;;;;;14.70;100.00;103036.94;4747415;29;20060;-64
2022/07/08 04:15:39;;;;;;;8.50;1.70;;;;;;;14.70;100.00;103033.41;4751170;30;20058;-62
2022/07/08 04:18:06;;;;;;;8.50;1.80;;;;;;;14.66;100.00;103031.97;4746208;30;20056;-63
2022/07/08 04:20:32;;;;;;;9.10;1.63;;;;;;;14.65;100.00;103036.44;4754915;30;20055;-63
2022/07/08 04:22:59;;;;;;;4.65;1.52;;;;;;;14.63;100.00;103033.91;4755077;30;20062;-62
2022/07/08 04:25:25;;;;;;;9.43;1.90;;;;;;;14.62;100.00;103029.59;4758514;30;20063;-64
2022/07/08 04:27:52;;;;;;;6.88;1.60;;;;;;;14.67;100.00;103033.69;4753847;30;20052;-61
2022/07/08 04:30:18;;;;;;;9.25;1.77;;;;;;;14.68;100.00;103040.63;4738681;30;20402;-63
2022/07/08 04:32:44;;;;;;;8.32;1.80;;;;;;;14.72;100.00;103047.34;4757998;29;20048;-62
2022/07/08 04:35:11;;;;;;;11.85;2.22;;;;;;;14.70;100.00;103052.78;4754485;30;20433;-62
2022/07/08 04:37:37;;;;;;;7.13;1.42;;;;;;;14.72;100.00;103053.50;4748749;29;20082;-63
2022/07/08 04:40:04;;;;;;;7.05;1.85;;;;;;;14.70;100.00;103050.13;4768091;29;20074;-63
2022/07/08 04:42:31;;;;;;;5.97;1.65;;;;;;;14.68;100.00;103057.34;4748374;30;20062;-63
2022/07/08 04:44:57;;;;;;;6.85;1.80;;;;;;;14.68;100.00;103059.97;4766458;29;20059;-63
2022/07/08 04:47:24;;;;;;;8.00;1.55;;;;;;;14.69;100.00;103059.00;4742066;30;20544;-62
2022/07/08 04:49:50;;;;;;;10.98;2.22;;;;;;;14.74;100.00;103063.91;4753232;29;20606;-62
2022/07/08 04:52:16;;;;;;;8.45;1.80;;;;;;;14.67;100.00;103057.44;4745993;30;20055;-63
2022/07/08 04:54:43;;;;;;;7.78;1.98;;;;;;;14.68;100.00;103059.97;4747764;30;20527;-62
2022/07/08 04:57:09;;;;;;;9.18;2.00;;;;;;;14.70;100.00;103060.69;4754258;30;20131;-63
2022/07/08 04:59:36;;;;;;;11.00;2.05;;;;;;;14.79;100.00;103070.53;4750299;30;20063;-63
2022/07/08 05:02:02;;;;;;;9.35;1.70;;;;;;;14.89;100.00;103083.03;4752992;29;20490;-63
2022/07/08 05:04:29;;;;;;;10.30;2.00;;;;;;;14.91;100.00;103075.81;4745780;30;20505;-63
2022/07/08 05:06:55;;;;;;;8.18;1.88;;;;;;;14.95;100.00;103075.47;4754613;30;20055;-63
2022/07/08 05:09:22;;;;;;;11.55;2.50;;;;;;;14.96;100.00;103076.31;4763286;29;20561;-63
2022/07/08 05:11:49;;;;;;;5.45;1.75;;;;;;;14.97;100.00;103073.53;4757241;30;20760;-63
2022/07/08 05:14:15;;;;;;;10.48;1.98;;;;;;;14.98;100.00;103077.88;4756457;30;20056;-63
2022/07/08 05:16:43;;;;;;;7.68;1.90;;;;;;;14.98;100.00;103083.16;4747386;29;20066;-63
2022/07/08 05:19:09;;;;;;;7.55;2.05;;;;;;;14.94;100.00;103079.06;4745032;30;20077;-63
2022/07/08 05:21:37;;;;;;;8.75;1.85;;;;;;;14.95;100.00;103079.91;4754399;30;20056;-63
2022/07/08 05:24:05;;;;;;;11.20;1.98;;;;;;;14.93;100.00;103081.84;4746762;30;20059;-63
2022/07/08 05:26:32;;;;;;;8.95;2.00;;;;;;;14.92;100.00;103086.28;4761210;30;20062;-63
2022/07/08 05:28:59;;;;;;;10.60;2.08;;;;;;;14.89;100.00;103088.31;4742022;29;20060;-64
2022/07/08 05:31:26;;;;;;;10.73;2.10;;;;;;;14.97;100.00;103093.84;4750041;30;20061;-63
2022/07/08 05:33:53;;;;;;;10.63;2.00;;;;;;;14.99;100.00;103091.91;4740778;30;20064;-62
2022/07/08 05:36:19;;;;;;;9.13;2.22;;;;;;;14.99;100.00;103091.91;4762583;29;20061;-63
2022/07/08 05:38:46;;;;;;;5.82;1.77;;;;;;;15.03;100.00;103098.66;4765167;30;20068;-64
2022/07/08 05:41:12;;;;;;;9.75;1.85;;;;;;;15.06;100.00;103097.59;4746129;30;20078;-64
2022/07/08 05:43:39;;;;;;;9.05;2.15;;;;;;;15.07;100.00;103093.97;4748061;30;20808;-64
2022/07/08 05:46:05;;;;;;;9.80;2.30;;;;;;;15.10;100.00;103104.31;4741218;30;20056;-63
2022/07/08 05:48:32;;;;;;;9.10;2.17;;;;;;;15.16;100.00;103096.72;4757033;30;20059;-63
2022/07/08 05:50:58;;;;;;;10.82;2.28;;;;;;;15.19;100.00;103099.13;4745082;30;22139;-63
2022/07/08 05:53:25;;;;;;;7.18;1.50;;;;;;;15.22;100.00;103104.16;4750321;30;20071;-62
2022/07/08 05:55:51;;;;;;;10.52;2.05;;;;;;;15.27;100.00;103098.53;4745366;30;20448;-63
2022/07/08 05:58:18;;;;;;;11.82;1.90;;;;;;;15.30;100.00;103106.22;4743635;30;20064;-63
2022/07/08 06:00:44;;;;;;;13.52;3.05;;;;;;;15.27;100.00;103106.47;4751352;30;20064;-63
2022/07/08 06:03:11;;;;;;;10.43;1.80;;;;;;;15.31;100.00;103115.84;4747508;30;20415;-63
2022/07/08 06:05:38;;;;;;;9.10;2.42;;;;;;;15.30;100.00;103111.50;4760483;30;20063;-63
2022/07/08 06:08:04;;;;;;;8.32;1.70;;;;;;;15.33;100.00;103103.34;4761203;29;20056;-64
2022/07/08 06:10:31;;;;;;;9.98;1.88;;;;;;;15.36;100.00;103111.00;4751937;29;20135;-63
2022/07/08 06:12:57;;;;;;;11.13;2.20;;;;;;;15.40;100.00;103108.97;4754788;30;20066;-63
2022/07/08 06:15:24;;;;;;;9.27;1.80;;;;;;;15.47;100.00;103120.75;4746122;30;20170;-62
2022/07/08 06:17:50;;;;;;;11.93;1.90;;;;;;;15.52;100.00;103115.91;4757799;30;20347;-62
2022/07/08 06:20:17;;;;;;;8.98;1.58;;;;;;;15.62;100.00;103118.66;4755043;30;20087;-63
2022/07/08 06:22:48;;;;;;;8.70;2.03;;;;;;;15.74;100.00;103115.06;4766696;30;20577;-64
2022/07/08 06:25:14;;;;;;;8.00;1.85;;;;;;;15.84;100.00;103109.00;4765045;29;20155;-64
2022/07/08 06:27:40;;;;;;;10.60;2.47;;;;;;;15.95;100.00;103117.75;4747349;30;20856;-64
2022/07/08 06:30:12;;;;;;;12.02;1.80;;;;;;;16.11;100.00;103111.19;4768880;30;20063;-65
2022/07/08 06:32:39;;;;;;;10.20;1.95;;;;;;;16.17;100.00;103105.38;4769992;29;20103;-63
2022/07/08 06:35:05;;;;;;;7.65;1.75;;;;;;;16.31;100.00;103110.38;4756665;29;20060;-63
2022/07/08 06:37:32;;;;;;;8.00;1.83;;;;;;;16.37;100.00;103119.63;4753705;30;20113;-63
2022/07/08 06:39:59;;;;;;;12.07;2.00;;;;;;;16.53;100.00;103120.00;4753933;29;20071;-63
2022/07/08 06:42:25;;;;;;;7.43;1.20;;;;;;;16.70;100.00;103107.13;4756130;30;20060;-63
2022/07/08 06:44:51;;;;;;;9.38;1.85;;;;;;;16.82;100.00;103105.25;4755618;29;20051;-64
2022/07/08 06:47:18;;;;;;;8.32;1.60;;;;;;;16.96;100.00;103104.94;4754933;30;20384;-63
2022/07/08 06:49:46;;;;;;;21.48;2.58;;;;;;;17.03;100.00;103099.94;4758072;30;20065;-63
2022/07/08 06:52:13;;;;;;;14.95;2.10;;;;;;;17.22;100.00;103107.13;4762167;29;20295;-63
2022/07/08 06:54:39;;;;;;;9.88;1.67;;;;;;;17.28;100.00;103103.94;4742322;30;20056;-63
2022/07/08 06:57:07;;;;;;;15.77;2.42;;;;;;;17.36;100.00;103107.56;4753482;30;20055;-63
2022/07/08 06:59:38;;;;;;;11.93;1.70;;;;;;;17.52;100.00;103098.25;4756081;30;20157;-64
2022/07/08 07:02:25;;;;;;;7.30;1.40;;;;;;;17.68;100.00;103108.31;4748419;30;20063;-63
2022/07/08 07:04:51;;;;;;;9.68;1.90;;;;;;;17.70;100.00;103103.72;4759133;30;20501;-63
2022/07/08 07:07:18;;;;;;;8.20;1.40;;;;;;;17.78;100.00;103107.38;4748944;29;20403;-63
2022/07/08 07:09:47;;;;;;;13.70;1.80;;;;;;;17.92;100.00;103111.47;4753905;30;20343;-63
2022/07/08 07:12:14;;;;;;;10.98;1.67;;;;;;;17.94;100.00;103104.19;4755766;30;20066;-63
2022/07/08 07:14:41;;;;;;;7.57;1.48;;;;;;;18.04;100.00;103103.38;4758117;30;20060;-64
2022/07/08 07:17:07;;;;;;;12.50;1.48;;;;;;;18.05;100.00;103100.56;4754293;30;20060;-64
2022/07/08 07:19:34;;;;;;;7.88;1.60;;;;;;;18.12;100.00;103101.69;4745657;30;20060;-64
2022/07/08 07:22:00;;;;;;;6.20;1.33;;;;;;;18.28;100.00;103100.28;4758055;29;20062;-64
2022/07/08 07:24:28;;;;;;;9.98;1.58;;;;;;;18.25;100.00;103101.41;4741355;30;20060;-65
2022/07/08 07:26:54;;;;;;;10.93;1.50;;;;;;;18.37;100.00;103116.19;4765806;29;20071;-63
2022/07/08 07:29:21;;;;;;;11.25;1.67;;;;;;;18.45;100.00;103107.50;4747417;29;20052;-63
2022/07/08 07:31:47;;;;;;;12.82;1.48;;;;;;;18.43;100.00;103113.97;4761917;30;20692;-64
2022/07/08 07:34:14;;;;;;;8.43;1.48;;;;;;;18.37;100.00;103113.53;4757113;30;20086;-64
2022/07/08 07:36:41;;;;;;;10.52;1.80;;;;;;;18.42;100.00;103115.75;4749568;29;20493;-64
2022/07/08 07:39:09;;;;;;;39.38;4.55;;;;;;;18.35;100.00;103128.78;4759219;30;20626;-63
2022/07/08 07:41:36;;;;;;;;;;;;;;;18.33;100.00;103124.59;4757897;29;20056;-64
2022/07/08 07:44:03;;;;;;;8.15;1.80;;;;;;;18.41;100.00;103129.22;4761566;30;19930;-63
2022/07/08 07:46:30;;;;;;;10.60;1.40;;;;;;;18.58;100.00;103131.09;4755468;30;20056;-63
2022/07/08 07:48:56;;;;;;;5.60;1.50;;;;;;;18.68;100.00;103133.75;4753299;30;20411;-64
2022/07/08 07:51:23;;;;;;;7.75;1.35;;;;;;;18.80;100.00;103127.31;4759701;30;20524;-62
2022/07/08 07:53:50;;;;;;;9.25;1.50;;;;;;;18.82;100.00;103128.03;4759288;29;20044;-64
2022/07/08 07:56:16;;;;;;;13.05;2.10;;;;;;;18.92;100.00;103120.00;4755027;30;20074;-64
2022/07/08 07:58:43;;;;;;;7.88;1.42;;;;;;;18.93;100.00;103122.53;4755492;30;20056;-64
2022/07/08 08:01:09;;;;;;;9.15;1.50;;;;;;;18.95;100.00;103119.69;4763837;30;20063;-64
2022/07/08 08:03:36;;;;;;;9.90;1.67;;;;;;;18.91;100.00;103118.31;4753173;30;20055;-64
2022/07/08 08:06:03;;;;;;;5.38;1.42;;;;;;;18.80;100.00;103122.00;4753682;30;20146;-64
2022/07/08 08:08:31;;;;;;;10.37;1.77;;;;;;;18.71;100.00;103114.88;4754641;30;20070;-64
2022/07/08 08:10:59;;;;;;;10.70;1.90;;;;;;;18.81;100.00;103118.34;4768764;30;20146;-63
2022/07/08 08:13:27;;;;;;;10.93;2.00;;;;;;;18.87;100.00;103123.09;4761268;30;20094;-64
2022/07/08 08:15:55;;;;;;;7.50;1.50;;;;;;;19.03;100.00;103126.94;4752880;29;20055;-63
2022/07/08 08:18:22;;;;;;;7.90;1.40;;;;;;;19.05;100.00;103117.00;4762318;30;20056;-63
2022/07/08 08:20:48;;;;;;;7.97;1.63;;;;;;;19.14;100.00;103116.13;4750285;29;20067;-63
2022/07/08 08:23:15;;;;;;;6.72;1.60;;;;;;;19.30;100.00;103118.97;4763615;29;20051;-64
2022/07/08 08:25:49;;;;;;;11.38;2.00;;;;;;;19.51;100.00;103121.38;4749817;30;20048;-64
2022/07/08 08:28:16;;;;;;;17.33;2.38;;;;;;;19.55;100.00;103121.94;4764300;30;20063;-63
2022/07/08 08:30:42;;;;;;;10.07;2.25;;;;;;;19.65;100.00;103119.19;4762633;30;20075;-64
2022/07/08 08:33:09;;;;;;;9.23;1.80;;;;;;;19.69;100.00;103118.75;4755725;29;20146;-64
2022/07/08 08:35:35;;;;;;;6.47;1.25;;;;;;;19.84;100.00;103126.25;4767470;30;20055;-63
2022/07/08 08:38:02;;;;;;;9.63;1.88;;;;;;;19.90;100.00;103120.31;4751241;30;20060;-63
2022/07/08 08:40:29;;;;;;;7.60;1.55;;;;;;;19.82;100.00;103114.91;4772768;30;20093;-63
2022/07/08 08:42:56;;;;;;;7.55;1.65;;;;;;;19.80;100.00;103123.06;4766145;29;20062;-64
2022/07/08 08:45:30;;;;;;;5.50;1.20;;;;;;;19.91;100.00;103113.97;4758324;30;20095;-64
2022/07/08 08:47:58;;;;;;;;;;;;;;;20.05;100.00;103118.78;4775905;29;20085;-64
2022/07/08 08:53:14;;;;;;;10.35;1.75;;;;;;;20.24;100.00;103120.41;4762949;30;20055;-64
2022/07/08 08:55:41;;;;;;;11.38;1.63;;;;;;;20.23;100.00;103128.56;4748078;30;20122;-64
2022/07/08 08:58:07;;;;;;;7.32;1.63;;;;;;;20.35;100.00;103116.69;4762899;30;20055;-64
2022/07/08 09:00:35;;;;;;;4.95;1.45;;;;;;;20.57;100.00;103114.50;4751019;30;20052;-63
2022/07/08 09:03:02;;;;;;;7.18;1.40;;;;;;;20.64;100.00;103123.56;4757818;30;20055;-63
2022/07/08 09:05:29;;;;;;;7.63;1.95;;;;;;;20.74;100.00;103118.97;4761459;29;20086;-62
2022/07/08 09:07:56;;;;;;;10.32;1.70;;;;;;;20.80;100.00;103106.84;4756199;29;20051;-64
2022/07/08 09:10:23;;;;;;;11.32;2.20;;;;;;;20.85;100.00;103109.84;4749406;30;20518;-65
2022/07/08 09:13:10;;;;;;;7.15;1.80;;;;;;;21.07;100.00;103114.63;4740026;30;20437;-64
2022/07/08 09:15:43;;;;;;;15.32;2.03;;;;;;;21.14;100.00;103112.16;4760548;30;20059;-64
2022/07/08 09:18:12;;;;;;;6.05;1.75;;;;;;;21.41;100.00;103112.91;4756450;29;20055;-64
2022/07/08 09:20:51;;;;;;;6.10;1.80;;;;;;;21.65;100.00;103104.97;4756572;30;20067;-64
2022/07/08 09:23:29;;;;;;;9.80;1.77;;;;;;;22.06;99.59;103110.34;4766372;29;20051;-64
2022/07/08 09:25:58;;;;;;;12.77;1.70;;;;;;;22.17;99.43;103121.69;4758083;30;20478;-64
2022/07/08 09:28:37;;;;;;;6.18;1.75;;;;;;;22.20;95.02;103116.00;4764458;29;21722;-64
2022/07/08 09:31:06;;;;;;;8.00;1.73;;;;;;;21.91;96.41;103099.50;4760821;30;20063;-63
2022/07/08 09:33:34;;;;;;;9.40;2.00;;;;;;;22.16;96.80;103099.47;4763844;30;20521;-64
2022/07/08 09:36:02;;;;;;;7.78;2.00;;;;;;;22.21;94.82;103115.00;4768392;29;20066;-64
2022/07/08 09:38:30;;;;;;;7.25;1.80;;;;;;;21.99;96.76;103105.81;4764824;30;20464;-64
2022/07/08 09:40:59;;;;;;;9.70;1.63;;;;;;;22.28;99.90;103091.97;4754020;30;20066;-63
2022/07/08 09:43:26;;;;;;;11.30;1.67;;;;;;;22.37;96.60;103100.84;4761586;30;20047;-64
2022/07/08 09:45:53;;;;;;;8.93;1.63;;;;;;;22.47;98.47;103098.81;4754336;30;20099;-64
2022/07/08 09:48:19;;;;;;;7.65;1.70;;;;;;;22.53;96.00;103103.47;4761765;29;20066;-64
2022/07/08 09:50:47;;;;;;;8.32;2.00;;;;;;;22.60;95.86;103100.94;4769396;30;20059;-64
2022/07/08 09:53:31;;;;;;;7.30;1.55;;;;;;;22.68;93.49;103099.09;4751534;30;20047;-63
2022/07/08 09:56:00;;;;;;;5.28;1.70;;;;;;;22.32;95.37;103104.00;4760133;30;20063;-63
2022/07/08 09:58:29;;;;;;;6.10;1.60;;;;;;;22.54;97.58;103101.63;4756751;29;20062;-64
2022/07/08 10:00:56;;;;;;;8.20;1.67;;;;;;;22.60;96.67;103093.75;4768122;29;20522;-64
2022/07/08 10:03:24;;;;;;;4.03;1.30;;;;;;;22.63;95.81;103100.59;4761155;30;20406;-63
2022/07/08 10:05:51;;;;;;;9.80;1.70;;;;;;;22.69;95.64;103100.75;4752882;30;20095;-64
2022/07/08 10:08:18;;;;;;;9.73;1.58;;;;;;;22.66;94.68;103101.09;4764907;30;20066;-64
2022/07/08 10:10:46;;;;;;;7.32;1.67;;;;;;;22.97;96.66;103094.94;4755479;30;20669;-64
2022/07/08 10:13:13;;;;;;;;;;;;;;;23.17;92.67;103091.88;4760399;30;20521;-64
2022/07/08 10:15:40;;;;;;;9.47;1.93;;;;;;;23.26;94.69;103097.00;4753919;29;20315;-63
2022/07/08 10:18:18;;;;;;;9.05;1.75;;;;;;;23.28;93.03;103089.63;4757263;30;20059;-64
2022/07/08 10:20:49;;;;;;;8.63;1.75;;;;;;;23.28;93.12;103095.00;4756566;30;20055;-64
2022/07/08 10:23:23;;;;;;;8.85;1.83;;;;;;;23.51;94.94;103096.06;4748016;30;20610;-64
2022/07/08 10:25:50;;;;;;;7.22;1.95;;;;;;;23.62;96.36;103090.25;4752476;30;20070;-64
2022/07/08 10:28:16;;;;;;;7.35;1.60;;;;;;;23.78;94.38;103092.03;4751968;30;20063;-65
2022/07/08 10:30:51;;;;;;;7.20;1.80;;;;;;;23.88;92.89;103101.50;4754166;30;20071;-64
2022/07/08 10:33:25;;;;;;;6.75;1.55;;;;;;;23.57;88.90;103095.34;4749897;30;20052;-63
2022/07/08 10:36:03;;;;;;;7.18;1.60;;;;;;;23.64;91.48;103099.81;4757378;30;20489;-64
2022/07/08 10:38:32;;;;;;;6.03;1.65;;;;;;;23.70;90.53;103098.25;4757835;29;20492;-63
2022/07/08 10:41:05;;;;;;;10.65;1.90;;;;;;;23.57;90.28;103095.34;4750841;30;20070;-64
2022/07/08 10:43:32;;;;;;;6.15;1.83;;;;;;;23.88;90.05;103090.78;4760581;30;20131;-64
2022/07/08 10:46:05;;;;;;;7.10;1.80;;;;;;;23.62;88.90;103091.13;4752772;30;20059;-64
2022/07/08 10:48:40;;;;;;;8.18;1.77;;;;;;;23.63;89.62;103091.94;4758003;30;20070;-64
2022/07/08 10:51:19;;;;;;;6.32;1.80;;;;;;;23.65;93.05;103088.06;4760210;29;20077;-64
2022/07/08 10:54:05;;;;;;;9.82;1.73;;;;;;;23.61;90.56;103093.97;4765586;30;20425;-63
2022/07/08 10:56:55;;;;;;;7.28;1.88;;;;;;;23.46;91.82;103096.56;4768774;29;20557;-63
2022/07/08 10:59:36;;;;;;;6.07;1.52;;;;;;;23.71;92.39;103099.91;4768611;30;20110;-64
2022/07/08 11:02:11;;;;;;;7.03;1.70;;;;;;;23.85;94.30;103099.16;4765250;29;20052;-64
2022/07/08 11:04:37;;;;;;;7.13;1.88;;;;;;;23.98;94.03;103095.06;4768480;30;20461;-64
2022/07/08 11:07:28;;;;;;;6.55;1.90;;;;;;;24.06;91.17;103093.13;4756300;29;20067;-63
2022/07/08 11:10:01;;;;;;;7.85;1.92;;;;;;;23.87;88.43;103082.91;4765166;30;20147;-64
2022/07/08 11:12:30;;;;;;;9.57;2.22;;;;;;;23.88;91.75;103084.56;4763054;29;20066;-64
2022/07/08 11:14:58;;;;;;;5.93;1.80;;;;;;;23.85;92.25;103084.94;4768621;30;20048;-64
2022/07/08 11:17:34;;;;;;;7.45;1.98;;;;;;;23.90;91.63;103079.88;4765759;30;20055;-64
2022/07/08 11:20:06;;;;;;;9.80;2.03;;;;;;;23.92;89.91;103082.38;4757003;30;20062;-64
2022/07/08 11:22:35;;;;;;;7.05;2.17;;;;;;;24.34;90.36;103080.97;4759846;29;20094;-63
2022/07/08 11:25:01;;;;;;;5.38;1.83;;;;;;;24.62;89.87;103076.66;4757353;29;20062;-63